sensor_id;sensor_type;location;lat;lon;timestamp;pressure;altitude;pressure_sealevel;temperature;humidity
38452;BME280;24231;52.514;13.438;2023-11-21T00:03:03;100351.19;;;11.02;68.54
38452;BME280;24231;52.514;13.438;2023-11-21T00:05:31;100353.52;;;10.12;73.32
38452;BME280;24231;52.514;13.438;2023-11-21T00:07:58;100350.60;;;10.43;71.83
38452;BME280;24231;52.514;13.438;2023-11-21T00:10:26;100354.57;;;10.70;69.79
38452;BME280;24231;52.514;13.438;2023-11-21T00:12:54;100359.58;;;10.08;71.74
38452;BME280;24231;52.514;13.438;2023-11-21T00:15:21;100361.90;;;10.85;68.06
38452;BME280;24231;52.514;13.438;2023-11-21T00:17:48;100367.12;;;10.96;68.29
38452;BME280;24231;52.514;13.438;2023-11-21T00:20:15;100370.22;;;9.98;71.60
38452;BME280;24231;52.514;13.438;2023-11-21T00:22:42;100377.74;;;9.18;74.72
38452;BME280;24231;52.514;13.438;2023-11-21T00:25:10;100375.55;;;9.81;73.55
38452;BME280;24231;52.514;13.438;2023-11-21T00:27:37;100377.57;;;9.36;75.48
38452;BME280;24231;52.514;13.438;2023-11-21T00:30:06;100377.70;;;9.65;73.62
38452;BME280;24231;52.514;13.438;2023-11-21T00:32:33;100382.98;;;9.75;72.66
38452;BME280;24231;52.514;13.438;2023-11-21T00:35:00;100380.01;;;10.24;70.30
38452;BME280;24231;52.514;13.438;2023-11-21T00:37:27;100385.78;;;10.43;69.87
38452;BME280;24231;52.514;13.438;2023-11-21T00:39:55;100386.21;;;10.05;70.65
38452;BME280;24231;52.514;13.438;2023-11-21T00:42:23;100389.42;;;10.66;67.36
38452;BME280;24231;52.514;13.438;2023-11-21T00:44:50;100396.13;;;10.03;71.04
38452;BME280;24231;52.514;13.438;2023-11-21T00:47:17;100403.09;;;8.84;76.17
38452;BME280;24231;52.514;13.438;2023-11-21T00:49:44;100405.96;;;9.24;74.52
38452;BME280;24231;52.514;13.438;2023-11-21T00:52:12;100405.69;;;10.00;69.86
38452;BME280;24231;52.514;13.438;2023-11-21T00:54:39;100404.86;;;10.42;68.24
38452;BME280;24231;52.514;13.438;2023-11-21T00:57:06;100408.78;;;9.73;71.76
38452;BME280;24231;52.514;13.438;2023-11-21T00:59:34;100403.99;;;10.51;67.24
38452;BME280;24231;52.514;13.438;2023-11-21T01:02:01;100412.82;;;9.88;69.77
38452;BME280;24231;52.514;13.438;2023-11-21T01:04:29;100411.59;;;10.33;67.10
38452;BME280;24231;52.514;13.438;2023-11-21T01:06:56;100414.00;;;10.48;66.51
38452;BME280;24231;52.514;13.438;2023-11-21T01:09:23;100420.34;;;10.07;67.65
38452;BME280;24231;52.514;13.438;2023-11-21T01:11:50;100419.51;;;10.22;67.42
38452;BME280;24231;52.514;13.438;2023-11-21T01:14:18;100423.48;;;9.51;70.18
38452;BME280;24231;52.514;13.438;2023-11-21T01:16:45;100426.81;;;9.11;71.87
38452;BME280;24231;52.514;13.438;2023-11-21T01:19:12;100431.96;;;9.86;69.04
38452;BME280;24231;52.514;13.438;2023-11-21T01:21:39;100439.67;;;9.49;71.13
38452;BME280;24231;52.514;13.438;2023-11-21T01:24:07;100435.82;;;9.93;67.78
38452;BME280;24231;52.514;13.438;2023-11-21T01:26:34;100443.23;;;9.83;68.37
38452;BME280;24231;52.514;13.438;2023-11-21T01:29:01;100446.08;;;10.46;66.08
38452;BME280;24231;52.514;13.438;2023-11-21T01:31:29;100451.27;;;9.84;68.29
38452;BME280;24231;52.514;13.438;2023-11-21T01:33:56;100454.00;;;10.04;67.15
38452;BME280;24231;52.514;13.438;2023-11-21T01:36:30;100458.58;;;10.27;65.98
38452;BME280;24231;52.514;13.438;2023-11-21T01:38:57;100458.19;;;8.43;74.68
38452;BME280;24231;52.514;13.438;2023-11-21T01:41:25;100455.13;;;9.20;69.13
38452;BME280;24231;52.514;13.438;2023-11-21T01:43:52;100455.60;;;8.31;73.34
38452;BME280;24231;52.514;13.438;2023-11-21T01:46:19;100457.83;;;7.88;75.63
38452;BME280;24231;52.514;13.438;2023-11-21T01:48:47;100456.05;;;8.97;70.47
38452;BME280;24231;52.514;13.438;2023-11-21T01:51:15;100457.85;;;8.93;71.31
38452;BME280;24231;52.514;13.438;2023-11-21T01:53:43;100462.95;;;8.38;73.54
38452;BME280;24231;52.514;13.438;2023-11-21T01:56:10;100469.87;;;8.19;73.28
38452;BME280;24231;52.514;13.438;2023-11-21T01:58:38;100468.47;;;8.42;71.21
38452;BME280;24231;52.514;13.438;2023-11-21T02:01:06;100473.85;;;7.97;72.54
38452;BME280;24231;52.514;13.438;2023-11-21T02:03:33;100474.65;;;8.58;72.05
38452;BME280;24231;52.514;13.438;2023-11-21T02:06:01;100471.14;;;9.57;66.14
38452;BME280;24231;52.514;13.438;2023-11-21T02:08:28;100474.91;;;9.23;67.56
38452;BME280;24231;52.514;13.438;2023-11-21T02:10:56;100478.76;;;9.45;66.17
38452;BME280;24231;52.514;13.438;2023-11-21T02:13:22;100481.05;;;8.94;69.06
38452;BME280;24231;52.514;13.438;2023-11-21T02:15:49;100485.24;;;8.49;69.40
38452;BME280;24231;52.514;13.438;2023-11-21T02:18:16;100486.71;;;9.68;64.98
38452;BME280;24231;52.514;13.438;2023-11-21T02:20:44;100490.26;;;9.76;65.63
38452;BME280;24231;52.514;13.438;2023-11-21T02:23:11;100492.03;;;8.85;69.79
38452;BME280;24231;52.514;13.438;2023-11-21T02:25:38;100489.70;;;9.49;66.15
38452;BME280;24231;52.514;13.438;2023-11-21T02:28:06;100492.82;;;8.40;70.51
38452;BME280;24231;52.514;13.438;2023-11-21T02:30:35;100489.74;;;8.36;71.56
38452;BME280;24231;52.514;13.438;2023-11-21T02:33:03;100490.69;;;9.00;67.64
38452;BME280;24231;52.514;13.438;2023-11-21T02:35:30;100492.89;;;9.77;64.23
38452;BME280;24231;52.514;13.438;2023-11-21T02:37:57;100492.26;;;9.56;65.12
38452;BME280;24231;52.514;13.438;2023-11-21T02:40:25;100500.23;;;10.07;62.52
38452;BME280;24231;52.514;13.438;2023-11-21T02:42:52;100503.68;;;9.30;66.90
38452;BME280;24231;52.514;13.438;2023-11-21T02:45:20;100505.77;;;9.13;66.92
38452;BME280;24231;52.514;13.438;2023-11-21T02:47:48;100506.01;;;9.08;67.31
38452;BME280;24231;52.514;13.438;2023-11-21T02:50:15;100503.24;;;10.26;62.43
38452;BME280;24231;52.514;13.438;2023-11-21T02:52:42;100507.60;;;10.07;62.77
38452;BME280;24231;52.514;13.438;2023-11-21T02:55:09;100505.31;;;9.41;67.08
38452;BME280;24231;52.514;13.438;2023-11-21T02:57:36;100509.34;;;8.43;69.66
38452;BME280;24231;52.514;13.438;2023-11-21T03:00:05;100504.05;;;8.87;68.26
38452;BME280;24231;52.514;13.438;2023-11-21T03:02:33;100506.28;;;9.17;66.36
38452;BME280;24231;52.514;13.438;2023-11-21T03:05:00;100509.65;;;8.62;68.42
38452;BME280;24231;52.514;13.438;2023-11-21T03:07:28;100514.04;;;8.42;68.73
38452;BME280;24231;52.514;13.438;2023-11-21T03:09:55;100518.41;;;8.68;68.44
38452;BME280;24231;52.514;13.438;2023-11-21T03:12:22;100520.00;;;8.32;68.86
38452;BME280;24231;52.514;13.438;2023-11-21T03:14:49;100518.60;;;8.97;66.90
38452;BME280;24231;52.514;13.438;2023-11-21T03:17:16;100520.94;;;8.75;66.92
38452;BME280;24231;52.514;13.438;2023-11-21T03:19:43;100525.99;;;8.08;71.44
38452;BME280;24231;52.514;13.438;2023-11-21T03:22:10;100524.05;;;9.21;64.76
38452;BME280;24231;52.514;13.438;2023-11-21T03:24:37;100526.88;;;9.33;63.93
38452;BME280;24231;52.514;13.438;2023-11-21T03:27:05;100527.06;;;9.43;63.14
38452;BME280;24231;52.514;13.438;2023-11-21T03:29:31;100531.73;;;9.01;65.15
38452;BME280;24231;52.514;13.438;2023-11-21T03:32:00;100540.23;;;8.39;66.87
38452;BME280;24231;52.514;13.438;2023-11-21T03:34:28;100548.16;;;8.29;66.79
38452;BME280;24231;52.514;13.438;2023-11-21T03:36:55;100546.76;;;9.27;63.92
38452;BME280;24231;52.514;13.438;2023-11-21T03:39:23;100552.43;;;8.42;68.23
38452;BME280;24231;52.514;13.438;2023-11-21T03:41:50;100550.12;;;8.89;66.04
38452;BME280;24231;52.514;13.438;2023-11-21T03:44:17;100554.97;;;9.18;65.20
38452;BME280;24231;52.514;13.438;2023-11-21T03:46:44;100553.84;;;8.85;66.26
38452;BME280;24231;52.514;13.438;2023-11-21T03:49:12;100553.78;;;9.59;63.37
38452;BME280;24231;52.514;13.438;2023-11-21T03:51:39;100559.27;;;9.14;64.13
38452;BME280;24231;52.514;13.438;2023-11-21T03:54:06;100563.46;;;9.26;63.54
38452;BME280;24231;52.514;13.438;2023-11-21T03:56:33;100567.75;;;8.86;65.65
38452;BME280;24231;52.514;13.438;2023-11-21T03:59:01;100569.16;;;9.67;61.52
38452;BME280;24231;52.514;13.438;2023-11-21T04:01:28;100573.80;;;7.73;69.40
38452;BME280;24231;52.514;13.438;2023-11-21T04:03:55;100577.69;;;8.34;67.17
38452;BME280;24231;52.514;13.438;2023-11-21T04:06:23;100579.03;;;8.43;64.69
38452;BME280;24231;52.514;13.438;2023-11-21T04:08:50;100584.00;;;7.21;70.12
38452;BME280;24231;52.514;13.438;2023-11-21T04:11:17;100585.22;;;8.03;64.47
38452;BME280;24231;52.514;13.438;2023-11-21T04:13:44;100590.43;;;6.77;71.50
38452;BME280;24231;52.514;13.438;2023-11-21T04:16:12;100595.39;;;6.74;71.56
38452;BME280;24231;52.514;13.438;2023-11-21T04:18:40;100600.52;;;7.19;69.77
38452;BME280;24231;52.514;13.438;2023-11-21T04:21:07;100599.85;;;6.41;73.13
38452;BME280;24231;52.514;13.438;2023-11-21T04:23:35;100602.30;;;6.64;70.92
38452;BME280;24231;52.514;13.438;2023-11-21T04:26:02;100608.95;;;6.64;68.74
38452;BME280;24231;52.514;13.438;2023-11-21T04:28:30;100610.57;;;7.21;67.70
38452;BME280;24231;52.514;13.438;2023-11-21T04:30:57;100607.18;;;8.07;63.78
38452;BME280;24231;52.514;13.438;2023-11-21T04:33:24;100613.87;;;7.43;66.25
38452;BME280;24231;52.514;13.438;2023-11-21T04:35:51;100607.96;;;8.47;61.43
38452;BME280;24231;52.514;13.438;2023-11-21T04:38:18;100609.14;;;8.00;63.23
38452;BME280;24231;52.514;13.438;2023-11-21T04:40:46;100617.33;;;8.40;62.29
38452;BME280;24231;52.514;13.438;2023-11-21T04:43:13;100627.62;;;7.49;65.68
38452;BME280;24231;52.514;13.438;2023-11-21T04:45:40;100624.76;;;7.97;64.11
38452;BME280;24231;52.514;13.438;2023-11-21T04:48:08;100628.34;;;7.53;65.85
38452;BME280;24231;52.514;13.438;2023-11-21T04:50:35;100624.00;;;8.37;61.86
38452;BME280;24231;52.514;13.438;2023-11-21T04:53:02;100627.67;;;8.14;63.26
38452;BME280;24231;52.514;13.438;2023-11-21T04:55:30;100627.57;;;9.00;59.92
38452;BME280;24231;52.514;13.438;2023-11-21T04:57:57;100630.07;;;7.97;63.02
38452;BME280;24231;52.514;13.438;2023-11-21T05:00:24;100629.13;;;8.21;64.04
38452;BME280;24231;52.514;13.438;2023-11-21T05:02:51;100633.65;;;8.06;64.26
38452;BME280;24231;52.514;13.438;2023-11-21T05:05:19;100636.56;;;8.41;62.33
38452;BME280;24231;52.514;13.438;2023-11-21T05:07:46;100649.94;;;7.14;65.29
38452;BME280;24231;52.514;13.438;2023-11-21T05:10:13;100651.95;;;7.79;63.71
38452;BME280;24231;52.514;13.438;2023-11-21T05:12:41;100655.47;;;7.45;65.28
38452;BME280;24231;52.514;13.438;2023-11-21T05:15:10;100650.86;;;8.01;63.00
38452;BME280;24231;52.514;13.438;2023-11-21T05:17:41;100665.91;;;6.52;68.85
38452;BME280;24231;52.514;13.438;2023-11-21T05:20:09;100669.76;;;7.08;67.57
38452;BME280;24231;52.514;13.438;2023-11-21T05:22:36;100667.83;;;8.16;63.23
38452;BME280;24231;52.514;13.438;2023-11-21T05:25:04;100674.00;;;7.90;64.72
38452;BME280;24231;52.514;13.438;2023-11-21T05:27:32;100673.57;;;7.73;63.75
38452;BME280;24231;52.514;13.438;2023-11-21T05:30:00;100670.68;;;7.95;63.15
38452;BME280;24231;52.514;13.438;2023-11-21T05:32:27;100672.19;;;7.60;64.10
38452;BME280;24231;52.514;13.438;2023-11-21T05:34:55;100673.82;;;7.11;66.71
38452;BME280;24231;52.514;13.438;2023-11-21T05:37:22;100678.03;;;7.33;65.82
38452;BME280;24231;52.514;13.438;2023-11-21T05:39:50;100679.17;;;8.04;63.23
38452;BME280;24231;52.514;13.438;2023-11-21T05:42:17;100683.00;;;7.42;65.85
38452;BME280;24231;52.514;13.438;2023-11-21T05:44:44;100690.85;;;7.47;65.27
38452;BME280;24231;52.514;13.438;2023-11-21T05:47:12;100696.83;;;6.21;69.23
38452;BME280;24231;52.514;13.438;2023-11-21T05:49:38;100700.85;;;6.60;69.80
38452;BME280;24231;52.514;13.438;2023-11-21T05:52:06;100707.53;;;6.80;68.80
38452;BME280;24231;52.514;13.438;2023-11-21T05:54:33;100706.89;;;6.79;68.07
38452;BME280;24231;52.514;13.438;2023-11-21T05:57:00;100709.01;;;7.97;64.53
38452;BME280;24231;52.514;13.438;2023-11-21T05:59:27;100700.51;;;8.20;62.58
38452;BME280;24231;52.514;13.438;2023-11-21T06:01:54;100710.42;;;7.57;65.16
38452;BME280;24231;52.514;13.438;2023-11-21T06:04:22;100713.75;;;7.76;64.77
38452;BME280;24231;52.514;13.438;2023-11-21T06:06:50;100717.62;;;6.61;70.33
38452;BME280;24231;52.514;13.438;2023-11-21T06:09:17;100719.69;;;6.96;69.09
38452;BME280;24231;52.514;13.438;2023-11-21T06:11:45;100723.89;;;6.84;67.99
38452;BME280;24231;52.514;13.438;2023-11-21T06:14:12;100727.49;;;8.15;63.27
38452;BME280;24231;52.514;13.438;2023-11-21T06:16:39;100730.97;;;6.59;67.66
38452;BME280;24231;52.514;13.438;2023-11-21T06:19:06;100731.24;;;8.45;61.14
38452;BME280;24231;52.514;13.438;2023-11-21T06:21:33;100738.26;;;7.42;65.21
38452;BME280;24231;52.514;13.438;2023-11-21T06:24:00;100742.51;;;7.60;65.35
38452;BME280;24231;52.514;13.438;2023-11-21T06:26:27;100749.70;;;8.01;62.06
38452;BME280;24231;52.514;13.438;2023-11-21T06:28:55;100754.63;;;7.37;65.68
38452;BME280;24231;52.514;13.438;2023-11-21T06:31:22;100756.93;;;7.22;64.73
38452;BME280;24231;52.514;13.438;2023-11-21T06:33:49;100759.58;;;7.55;63.43
38452;BME280;24231;52.514;13.438;2023-11-21T06:36:17;100764.86;;;8.20;60.55
38452;BME280;24231;52.514;13.438;2023-11-21T06:38:44;100767.92;;;8.32;60.30
38452;BME280;24231;52.514;13.438;2023-11-21T06:41:11;100772.69;;;7.76;62.06
38452;BME280;24231;52.514;13.438;2023-11-21T06:43:38;100779.48;;;8.16;59.65
38452;BME280;24231;52.514;13.438;2023-11-21T06:46:06;100783.98;;;7.34;63.44
38452;BME280;24231;52.514;13.438;2023-11-21T06:48:34;100784.03;;;8.65;59.14
38452;BME280;24231;52.514;13.438;2023-11-21T06:51:01;100783.69;;;8.65;58.77
38452;BME280;24231;52.514;13.438;2023-11-21T06:53:28;100790.94;;;8.09;60.56
38452;BME280;24231;52.514;13.438;2023-11-21T06:55:55;100791.77;;;8.38;60.03
38452;BME280;24231;52.514;13.438;2023-11-21T06:58:21;100794.79;;;8.10;60.01
38452;BME280;24231;52.514;13.438;2023-11-21T07:00:49;100793.11;;;8.19;59.62
38452;BME280;24231;52.514;13.438;2023-11-21T07:03:16;100795.82;;;8.54;59.55
38452;BME280;24231;52.514;13.438;2023-11-21T07:05:43;100789.62;;;8.69;58.16
38452;BME280;24231;52.514;13.438;2023-11-21T07:08:11;100794.55;;;7.70;61.80
38452;BME280;24231;52.514;13.438;2023-11-21T07:10:38;100793.57;;;7.28;63.46
38452;BME280;24231;52.514;13.438;2023-11-21T07:13:05;100802.04;;;6.56;67.24
38452;BME280;24231;52.514;13.438;2023-11-21T07:15:33;100807.14;;;6.07;66.88
38452;BME280;24231;52.514;13.438;2023-11-21T07:18:00;100809.62;;;6.77;66.00
38452;BME280;24231;52.514;13.438;2023-11-21T07:20:27;100815.52;;;6.63;66.05
38452;BME280;24231;52.514;13.438;2023-11-21T07:22:54;100818.53;;;6.54;65.17
38452;BME280;24231;52.514;13.438;2023-11-21T07:25:22;100816.07;;;6.96;64.23
38452;BME280;24231;52.514;13.438;2023-11-21T07:27:49;100818.36;;;6.41;65.54
38452;BME280;24231;52.514;13.438;2023-11-21T07:30:16;100814.85;;;6.22;67.44
38452;BME280;24231;52.514;13.438;2023-11-21T07:32:43;100818.23;;;6.43;65.51
38452;BME280;24231;52.514;13.438;2023-11-21T07:35:11;100822.73;;;6.00;67.63
38452;BME280;24231;52.514;13.438;2023-11-21T07:37:38;100822.77;;;6.74;65.42
38452;BME280;24231;52.514;13.438;2023-11-21T07:40:06;100821.87;;;7.24;63.30
38452;BME280;24231;52.514;13.438;2023-11-21T07:42:34;100825.37;;;7.20;62.37
38452;BME280;24231;52.514;13.438;2023-11-21T07:45:01;100830.03;;;6.51;66.15
38452;BME280;24231;52.514;13.438;2023-11-21T07:47:28;100833.15;;;7.86;60.96
38452;BME280;24231;52.514;13.438;2023-11-21T07:49:56;100838.41;;;5.85;67.18
38452;BME280;24231;52.514;13.438;2023-11-21T07:52:23;100839.39;;;6.53;65.03
38452;BME280;24231;52.514;13.438;2023-11-21T07:54:51;100837.81;;;5.93;66.49
38452;BME280;24231;52.514;13.438;2023-11-21T07:57:18;100836.66;;;6.01;68.20
38452;BME280;24231;52.514;13.438;2023-11-21T07:59:45;100837.29;;;8.03;59.58
38452;BME280;24231;52.514;13.438;2023-11-21T08:02:13;100842.63;;;6.99;61.35
38452;BME280;24231;52.514;13.438;2023-11-21T08:04:40;100845.55;;;8.55;57.31
38452;BME280;24231;52.514;13.438;2023-11-21T08:07:07;100852.05;;;8.80;56.00
38452;BME280;24231;52.514;13.438;2023-11-21T08:09:35;100860.90;;;7.29;61.02
38452;BME280;24231;52.514;13.438;2023-11-21T08:12:02;100868.95;;;8.29;58.35
38452;BME280;24231;52.514;13.438;2023-11-21T08:14:30;100871.78;;;8.79;56.19
38452;BME280;24231;52.514;13.438;2023-11-21T08:16:57;100875.80;;;9.02;55.56
38452;BME280;24231;52.514;13.438;2023-11-21T08:19:24;100876.54;;;9.00;55.00
38452;BME280;24231;52.514;13.438;2023-11-21T08:21:51;100882.29;;;8.76;55.25
38452;BME280;24231;52.514;13.438;2023-11-21T08:24:18;100878.60;;;8.16;56.66
38452;BME280;24231;52.514;13.438;2023-11-21T08:26:45;100877.41;;;8.34;56.25
38452;BME280;24231;52.514;13.438;2023-11-21T08:29:12;100874.97;;;7.56;59.18
38452;BME280;24231;52.514;13.438;2023-11-21T08:31:40;100876.84;;;7.89;58.43
38452;BME280;24231;52.514;13.438;2023-11-21T08:34:07;100881.50;;;8.23;56.48
38452;BME280;24231;52.514;13.438;2023-11-21T08:36:34;100880.92;;;7.92;57.49
38452;BME280;24231;52.514;13.438;2023-11-21T08:39:02;100883.60;;;7.51;58.50
38452;BME280;24231;52.514;13.438;2023-11-21T08:41:29;100884.81;;;8.66;55.52
38452;BME280;24231;52.514;13.438;2023-11-21T08:43:56;100893.63;;;6.95;60.64
38452;BME280;24231;52.514;13.438;2023-11-21T08:46:24;100892.15;;;7.75;58.44
38452;BME280;24231;52.514;13.438;2023-11-21T08:48:51;100893.92;;;8.47;55.91
38452;BME280;24231;52.514;13.438;2023-11-21T08:51:18;100897.55;;;8.48;55.74
38452;BME280;24231;52.514;13.438;2023-11-21T08:53:46;100901.73;;;7.61;58.06
38452;BME280;24231;52.514;13.438;2023-11-21T08:56:14;100903.88;;;8.04;57.38
38452;BME280;24231;52.514;13.438;2023-11-21T08:58:41;100914.94;;;7.31;59.60
38452;BME280;24231;52.514;13.438;2023-11-21T09:01:08;100912.48;;;8.23;56.98
38452;BME280;24231;52.514;13.438;2023-11-21T09:03:36;100914.39;;;7.87;57.74
38452;BME280;24231;52.514;13.438;2023-11-21T09:06:03;100920.89;;;6.08;65.93
38452;BME280;24231;52.514;13.438;2023-11-21T09:08:30;100926.78;;;6.96;61.96
38452;BME280;24231;52.514;13.438;2023-11-21T09:10:58;100929.55;;;7.34;61.45
38452;BME280;24231;52.514;13.438;2023-11-21T09:13:24;100936.64;;;7.25;60.16
38452;BME280;24231;52.514;13.438;2023-11-21T09:15:52;100933.73;;;8.18;57.11
38452;BME280;24231;52.514;13.438;2023-11-21T09:18:19;100946.34;;;6.76;62.98
38452;BME280;24231;52.514;13.438;2023-11-21T09:20:47;100952.22;;;6.75;62.93
38452;BME280;24231;52.514;13.438;2023-11-21T09:23:14;100952.00;;;6.24;65.53
38452;BME280;24231;52.514;13.438;2023-11-21T09:25:41;100958.89;;;5.87;66.85
38452;BME280;24231;52.514;13.438;2023-11-21T09:28:08;100960.90;;;6.28;65.95
38452;BME280;24231;52.514;13.438;2023-11-21T09:30:35;100961.31;;;5.98;67.46
38452;BME280;24231;52.514;13.438;2023-11-21T09:33:04;100964.93;;;5.78;68.27
38452;BME280;24231;52.514;13.438;2023-11-21T09:35:31;100970.01;;;7.19;62.33
38452;BME280;24231;52.514;13.438;2023-11-21T09:37:58;100971.50;;;7.43;61.10
38452;BME280;24231;52.514;13.438;2023-11-21T09:40:25;100969.69;;;7.84;59.83
38452;BME280;24231;52.514;13.438;2023-11-21T09:42:55;100977.81;;;7.25;60.41
38452;BME280;24231;52.514;13.438;2023-11-21T09:45:26;100974.14;;;6.63;62.58
38452;BME280;24231;52.514;13.438;2023-11-21T09:47:54;100986.52;;;5.90;65.20
38452;BME280;24231;52.514;13.438;2023-11-21T09:50:22;100982.42;;;6.13;64.94
38452;BME280;24231;52.514;13.438;2023-11-21T09:52:57;100984.77;;;6.93;61.84
38452;BME280;24231;52.514;13.438;2023-11-21T09:55:27;100991.35;;;6.91;62.19
38452;BME280;24231;52.514;13.438;2023-11-21T09:57:56;100996.11;;;6.56;63.38
38452;BME280;24231;52.514;13.438;2023-11-21T10:00:23;100994.48;;;7.26;59.54
38452;BME280;24231;52.514;13.438;2023-11-21T10:02:52;100992.44;;;7.28;59.69
38452;BME280;24231;52.514;13.438;2023-11-21T10:05:20;100993.65;;;7.46;58.96
38452;BME280;24231;52.514;13.438;2023-11-21T10:07:48;100990.60;;;6.76;61.57
38452;BME280;24231;52.514;13.438;2023-11-21T10:10:19;100994.11;;;7.36;58.57
38452;BME280;24231;52.514;13.438;2023-11-21T10:12:49;100996.93;;;6.07;62.40
38452;BME280;24231;52.514;13.438;2023-11-21T10:15:18;100995.03;;;7.06;60.00
38452;BME280;24231;52.514;13.438;2023-11-21T10:17:46;101004.27;;;6.06;63.55
38452;BME280;24231;52.514;13.438;2023-11-21T10:20:20;101007.19;;;5.44;66.37
38452;BME280;24231;52.514;13.438;2023-11-21T10:22:47;101001.46;;;6.61;62.92
38452;BME280;24231;52.514;13.438;2023-11-21T10:25:14;101003.40;;;6.20;64.10
38452;BME280;24231;52.514;13.438;2023-11-21T10:27:42;101004.37;;;7.68;58.51
38452;BME280;24231;52.514;13.438;2023-11-21T10:30:10;101009.64;;;7.64;58.70
38452;BME280;24231;52.514;13.438;2023-11-21T10:32:38;101008.04;;;5.88;64.72
38452;BME280;24231;52.514;13.438;2023-11-21T10:35:05;101005.60;;;7.07;61.75
38452;BME280;24231;52.514;13.438;2023-11-21T10:37:33;101011.83;;;6.56;63.80
38452;BME280;24231;52.514;13.438;2023-11-21T10:40:01;101015.33;;;7.44;61.12
38452;BME280;24231;52.514;13.438;2023-11-21T10:42:28;101018.53;;;7.10;61.59
38452;BME280;24231;52.514;13.438;2023-11-21T10:44:56;101025.62;;;6.77;63.15
38452;BME280;24231;52.514;13.438;2023-11-21T10:47:24;101027.48;;;7.18;61.08
38452;BME280;24231;52.514;13.438;2023-11-21T10:49:52;101027.31;;;7.54;59.64
38452;BME280;24231;52.514;13.438;2023-11-21T10:52:19;101037.07;;;6.44;63.04
38452;BME280;24231;52.514;13.438;2023-11-21T10:54:46;101042.67;;;5.51;66.81
38452;BME280;24231;52.514;13.438;2023-11-21T10:57:18;101035.27;;;7.10;62.54
38452;BME280;24231;52.514;13.438;2023-11-21T10:59:47;101036.42;;;7.07;62.21
38452;BME280;24231;52.514;13.438;2023-11-21T11:02:23;101034.74;;;7.29;61.71
38452;BME280;24231;52.514;13.438;2023-11-21T11:04:52;101040.68;;;6.71;63.88
38452;BME280;24231;52.514;13.438;2023-11-21T11:07:21;101037.44;;;6.38;65.14
38452;BME280;24231;52.514;13.438;2023-11-21T11:09:53;101044.47;;;5.53;67.70
38452;BME280;24231;52.514;13.438;2023-11-21T11:12:20;101035.19;;;6.50;64.35
38452;BME280;24231;52.514;13.438;2023-11-21T11:14:48;101036.34;;;6.46;64.12
38452;BME280;24231;52.514;13.438;2023-11-21T11:17:16;101040.06;;;6.93;62.47
38452;BME280;24231;52.514;13.438;2023-11-21T11:19:44;101042.75;;;6.36;63.71
38452;BME280;24231;52.514;13.438;2023-11-21T11:22:23;101045.31;;;6.89;62.85
38452;BME280;24231;52.514;13.438;2023-11-21T11:25:06;101042.33;;;7.52;59.50
38452;BME280;24231;52.514;13.438;2023-11-21T11:27:42;101045.11;;;7.30;59.50
38452;BME280;24231;52.514;13.438;2023-11-21T11:30:20;101049.84;;;7.98;57.94
38452;BME280;24231;52.514;13.438;2023-11-21T11:32:57;101055.69;;;8.57;55.70
38452;BME280;24231;52.514;13.438;2023-11-21T11:35:34;101060.87;;;8.24;56.50
38452;BME280;24231;52.514;13.438;2023-11-21T11:38:05;101064.63;;;6.44;62.94
38452;BME280;24231;52.514;13.438;2023-11-21T11:40:41;101071.14;;;6.70;62.26
38452;BME280;24231;52.514;13.438;2023-11-21T11:43:11;101076.64;;;7.07;62.20
38452;BME280;24231;52.514;13.438;2023-11-21T11:45:39;101076.61;;;8.36;56.51
38452;BME280;24231;52.514;13.438;2023-11-21T11:48:06;101078.15;;;8.35;56.27
38452;BME280;24231;52.514;13.438;2023-11-21T11:50:34;101093.50;;;6.25;62.94
38452;BME280;24231;52.514;13.438;2023-11-21T11:53:17;101099.82;;;5.68;65.81
38452;BME280;24231;52.514;13.438;2023-11-21T11:55:45;101096.30;;;8.00;57.34
38452;BME280;24231;52.514;13.438;2023-11-21T11:58:12;101095.28;;;7.57;58.53
38452;BME280;24231;52.514;13.438;2023-11-21T12:00:40;101099.66;;;6.93;61.52
38452;BME280;24231;52.514;13.438;2023-11-21T12:03:08;101103.90;;;7.23;60.26
38452;BME280;24231;52.514;13.438;2023-11-21T12:05:36;101114.70;;;6.26;63.78
38452;BME280;24231;52.514;13.438;2023-11-21T12:08:05;101119.83;;;6.30;64.69
38452;BME280;24231;52.514;13.438;2023-11-21T12:10:35;101116.44;;;7.04;61.72
38452;BME280;24231;52.514;13.438;2023-11-21T12:13:05;101125.31;;;5.22;69.73
38452;BME280;24231;52.514;13.438;2023-11-21T12:15:34;101128.61;;;5.83;68.33
38452;BME280;24231;52.514;13.438;2023-11-21T12:18:02;101131.11;;;6.45;64.29
38452;BME280;24231;52.514;13.438;2023-11-21T12:20:32;101131.07;;;6.61;63.17
38452;BME280;24231;52.514;13.438;2023-11-21T12:23:00;101130.40;;;7.15;60.86
38452;BME280;24231;52.514;13.438;2023-11-21T12:25:29;101145.75;;;6.11;64.15
38452;BME280;24231;52.514;13.438;2023-11-21T12:27:58;101147.04;;;6.00;65.63
38452;BME280;24231;52.514;13.438;2023-11-21T12:30:27;101149.69;;;6.61;64.65
38452;BME280;24231;52.514;13.438;2023-11-21T12:32:55;101153.09;;;6.37;65.60
38452;BME280;24231;52.514;13.438;2023-11-21T12:35:25;101164.32;;;5.80;68.59
38452;BME280;24231;52.514;13.438;2023-11-21T12:37:54;101161.60;;;6.25;68.36
38452;BME280;24231;52.514;13.438;2023-11-21T12:40:21;101163.69;;;6.66;65.83
38452;BME280;24231;52.514;13.438;2023-11-21T12:42:51;101160.94;;;6.79;65.25
38452;BME280;24231;52.514;13.438;2023-11-21T12:45:21;101160.55;;;6.95;64.03
38452;BME280;24231;52.514;13.438;2023-11-21T12:47:50;101164.05;;;7.56;61.94
38452;BME280;24231;52.514;13.438;2023-11-21T12:50:19;101162.78;;;7.19;63.46
38452;BME280;24231;52.514;13.438;2023-11-21T12:52:46;101160.44;;;6.81;64.64
38452;BME280;24231;52.514;13.438;2023-11-21T12:55:15;101167.33;;;6.60;64.31